Time;durP1;ratioP1;P1;durP2;ratioP2;P2;SDS_P1;SDS_P2;PMS_P1;PMS_P2;Temp;Humidity;BMP_temperature;BMP_pressure;BME280_temperature;BME280_humidity;BME280_pressure;Samples;Min_cycle;Max_cycle;Signal;HPM_P1;HPM_P2
2021/10/17 00:00:03;;;;;;;13.68;6.63;;;10.80;79.80;;;;;;5056926;28;20024;-74
2021/10/17 00:02:29;;;;;;;17.50;7.30;;;10.80;79.80;;;;;;5075205;28;20028;-74
2021/10/17 00:04:54;;;;;;;14.68;7.25;;;10.80;79.50;;;;;;5057663;28;20116;-74
2021/10/17 00:07:20;;;;;;;21.75;7.32;;;10.80;79.70;;;;;;5074590;28;20021;-74
2021/10/17 00:09:45;;;;;;;16.58;7.30;;;10.70;79.70;;;;;;5075519;28;20016;-74
2021/10/17 00:12:12;;;;;;;14.73;7.00;;;10.70;80.10;;;;;;5074913;28;20030;-74
2021/10/17 00:14:38;;;;;;;19.40;7.32;;;10.70;80.20;;;;;;5056597;28;20036;-75
2021/10/17 00:17:06;;;;;;;16.50;8.00;;;10.70;79.90;;;;;;5074480;28;20032;-73
2021/10/17 00:19:32;;;;;;;18.17;8.15;;;10.70;80.40;;;;;;5056643;28;20381;-74
2021/10/17 00:21:57;;;;;;;15.43;7.18;;;10.60;79.30;;;;;;5074492;28;20036;-74
2021/10/17 00:24:23;;;;;;;19.17;7.80;;;10.60;79.70;;;;;;5074544;28;20135;-74
2021/10/17 00:26:48;;;;;;;17.88;8.18;;;10.60;79.70;;;;;;5074597;28;20024;-75
2021/10/17 00:29:14;;;;;;;15.70;6.95;;;10.60;79.70;;;;;;5074605;28;20025;-74
2021/10/17 00:31:40;;;;;;;16.98;7.22;;;10.60;79.70;;;;;;5075616;28;20028;-74
2021/10/17 00:34:05;;;;;;;14.73;7.47;;;10.70;80.40;;;;;;5056883;28;20028;-74
2021/10/17 00:36:34;;;;;;;12.80;6.60;;;10.70;80.30;;;;;;5057422;28;20461;-75
2021/10/17 00:39:00;;;;;;;16.98;7.10;;;10.70;80.20;;;;;;5059240;28;20021;-75
2021/10/17 00:41:30;;;;;;;15.68;7.03;;;10.70;79.80;;;;;;5085952;28;20080;-74
2021/10/17 00:43:56;;;;;;;19.30;7.45;;;10.70;80.50;;;;;;5073914;28;20024;-75
2021/10/17 00:46:22;;;;;;;20.05;7.28;;;10.70;79.40;;;;;;5065288;28;20027;-75
2021/10/17 00:48:48;;;;;;;17.85;6.20;;;10.70;79.30;;;;;;5058325;28;20048;-75
2021/10/17 00:51:15;;;;;;;17.30;6.93;;;10.70;79.20;;;;;;5055703;28;20021;-74
2021/10/17 00:53:42;;;;;;;16.00;6.05;;;10.70;79.40;;;;;;5055959;28;20032;-75
2021/10/17 00:56:08;;;;;;;14.27;7.03;;;10.70;79.40;;;;;;5055768;28;20025;-75
2021/10/17 00:58:34;;;;;;;16.48;7.65;;;10.70;79.40;;;;;;5073531;28;20381;-74
2021/10/17 01:01:00;;;;;;;12.10;6.13;;;10.70;79.20;;;;;;5073774;28;20035;-75
2021/10/17 01:03:26;;;;;;;17.27;6.55;;;10.70;79.00;;;;;;5073220;28;20375;-74
2021/10/17 01:05:53;;;;;;;12.65;6.95;;;10.70;78.90;;;;;;5073573;28;20051;-73
2021/10/17 01:08:19;;;;;;;17.27;6.55;;;10.70;78.80;;;;;;5055468;28;20465;-74
2021/10/17 01:10:45;;;;;;;17.52;6.20;;;10.70;79.10;;;;;;5073905;28;20029;-75
2021/10/17 01:13:19;;;;;;;14.05;6.40;;;10.70;79.10;;;;;;5072995;28;20032;-75
2021/10/17 01:15:52;;;;;;;17.70;7.20;;;10.70;78.90;;;;;;5073531;28;20031;-74
2021/10/17 01:18:19;;;;;;;17.00;6.97;;;10.70;79.10;;;;;;5055172;28;20033;-74
2021/10/17 01:20:44;;;;;;;15.50;6.25;;;10.60;78.90;;;;;;5073064;28;20473;-74
2021/10/17 01:23:11;;;;;;;16.08;6.68;;;10.60;79.00;;;;;;5073120;28;20024;-75
2021/10/17 01:25:36;;;;;;;16.83;6.45;;;10.60;79.10;;;;;;5073470;28;20029;-75
2021/10/17 01:28:02;;;;;;;18.70;8.15;;;10.60;79.20;;;;;;5072898;28;20029;-74
2021/10/17 01:30:31;;;;;;;13.75;6.25;;;10.60;79.30;;;;;;5073035;28;20035;-75
2021/10/17 01:32:57;;;;;;;15.45;6.13;;;10.70;80.20;;;;;;5054935;28;20024;-75
2021/10/17 01:35:22;;;;;;;19.40;7.35;;;10.60;80.80;;;;;;5054853;28;20078;-74
2021/10/17 01:37:48;;;;;;;15.15;6.93;;;10.70;80.50;;;;;;5073380;28;20024;-75
2021/10/17 01:40:14;;;;;;;18.42;7.00;;;10.70;80.80;;;;;;5072934;28;20537;-74
2021/10/17 01:42:40;;;;;;;16.38;6.22;;;10.60;79.70;;;;;;5073085;28;20322;-74
2021/10/17 01:45:06;;;;;;;17.38;6.88;;;10.60;79.70;;;;;;5072946;28;20025;-74
2021/10/17 01:47:31;;;;;;;15.15;6.60;;;10.60;79.70;;;;;;5055044;28;20028;-74
2021/10/17 01:49:57;;;;;;;16.58;7.10;;;10.60;79.70;;;;;;5055089;28;20067;-74
2021/10/17 01:52:23;;;;;;;22.10;6.80;;;10.60;79.30;;;;;;5072914;28;20036;-75
2021/10/17 01:54:48;;;;;;;16.55;6.32;;;10.60;79.90;;;;;;5073957;28;20064;-74
2021/10/17 01:57:14;;;;;;;16.33;6.47;;;10.60;79.90;;;;;;5056904;28;20078;-74
2021/10/17 01:59:40;;;;;;;14.48;6.38;;;10.60;79.70;;;;;;5085818;28;20025;-73
2021/10/17 02:02:05;;;;;;;15.50;6.60;;;10.60;80.10;;;;;;5063999;28;20047;-73
2021/10/17 02:04:31;;;;;;;17.67;6.75;;;10.70;80.50;;;;;;5059725;28;20024;-75
2021/10/17 02:06:56;;;;;;;16.23;6.43;;;10.70;81.00;;;;;;5074078;28;20059;-75
2021/10/17 02:09:22;;;;;;;17.20;7.05;;;10.70;80.40;;;;;;5075142;28;20401;-75
2021/10/17 02:11:47;;;;;;;20.63;7.03;;;10.60;80.00;;;;;;5080458;28;20028;-75
2021/10/17 02:14:13;;;;;;;16.58;6.35;;;10.70;80.00;;;;;;5071841;28;20029;-75
2021/10/17 02:16:39;;;;;;;17.13;6.53;;;10.60;80.20;;;;;;5083518;28;20033;-74
2021/10/17 02:19:04;;;;;;;17.38;6.18;;;10.60;79.30;;;;;;5075900;28;20060;-75
2021/10/17 02:21:30;;;;;;;14.85;6.25;;;10.70;79.70;;;;;;5072481;28;20025;-74
2021/10/17 02:23:55;;;;;;;15.45;6.90;;;10.70;79.70;;;;;;5072387;28;20024;-75
2021/10/17 02:26:21;;;;;;;22.88;7.05;;;10.70;80.40;;;;;;5072148;28;20484;-74
2021/10/17 02:28:47;;;;;;;11.65;5.85;;;10.70;81.00;;;;;;5072376;28;20028;-74
2021/10/17 02:31:12;;;;;;;18.70;7.55;;;10.70;80.50;;;;;;5054134;28;20107;-74
2021/10/17 02:33:39;;;;;;;16.77;6.78;;;10.70;80.20;;;;;;5072292;28;20142;-74
2021/10/17 02:36:05;;;;;;;14.68;6.43;;;10.70;81.00;;;;;;5072489;28;20024;-74
2021/10/17 02:38:30;;;;;;;15.75;6.70;;;10.60;81.60;;;;;;5071814;28;20047;-74
2021/10/17 02:40:56;;;;;;;18.98;7.10;;;10.70;81.60;;;;;;5071906;28;20048;-75
2021/10/17 02:43:22;;;;;;;22.23;7.35;;;10.70;81.40;;;;;;5053683;28;20081;-75
2021/10/17 02:45:47;;;;;;;16.63;6.93;;;10.60;81.90;;;;;;5072378;28;20032;-75
2021/10/17 02:48:13;;;;;;;16.75;6.45;;;10.70;81.10;;;;;;5054025;28;20444;-75
2021/10/17 02:50:38;;;;;;;22.23;7.53;;;10.60;81.00;;;;;;5054244;28;20025;-75
2021/10/17 02:53:04;;;;;;;13.95;6.60;;;10.60;81.00;;;;;;5072253;28;20028;-75
2021/10/17 02:55:30;;;;;;;19.25;6.97;;;10.60;81.40;;;;;;5054006;28;20024;-75
2021/10/17 02:57:55;;;;;;;13.75;6.53;;;10.70;82.00;;;;;;5072207;28;20030;-75
2021/10/17 03:00:21;;;;;;;19.55;8.85;;;10.70;82.30;;;;;;5071937;28;20458;-75
2021/10/17 03:02:46;;;;;;;15.30;7.72;;;10.70;82.70;;;;;;5071762;28;20029;-73
2021/10/17 03:05:12;;;;;;;19.13;6.85;;;10.60;83.30;;;;;;5054210;28;20024;-73
2021/10/17 03:07:37;;;;;;;16.38;7.07;;;10.70;83.20;;;;;;5053905;28;20052;-75
2021/10/17 03:10:04;;;;;;;15.93;6.60;;;10.60;83.40;;;;;;5071721;28;20449;-75
2021/10/17 03:12:30;;;;;;;15.98;6.45;;;10.60;83.30;;;;;;5071406;28;20384;-75
2021/10/17 03:14:55;;;;;;;18.55;7.75;;;10.60;83.70;;;;;;5054151;28;20032;-75
2021/10/17 03:17:21;;;;;;;16.08;6.88;;;10.60;82.90;;;;;;5053467;28;20036;-75
2021/10/17 03:19:46;;;;;;;17.85;7.22;;;10.60;83.30;;;;;;5053839;28;20111;-74
2021/10/17 03:22:12;;;;;;;17.85;7.10;;;10.60;83.70;;;;;;5071691;28;20476;-75
2021/10/17 03:24:38;;;;;;;18.85;7.35;;;10.60;83.70;;;;;;5071630;28;20021;-75
2021/10/17 03:27:03;;;;;;;14.30;7.22;;;10.60;83.80;;;;;;5072226;28;20543;-75
2021/10/17 03:29:29;;;;;;;14.27;6.15;;;10.60;83.80;;;;;;5071702;28;20024;-75
2021/10/17 03:31:54;;;;;;;17.08;7.88;;;10.60;83.10;;;;;;5071791;28;20024;-74
2021/10/17 03:34:20;;;;;;;19.90;7.03;;;10.60;83.10;;;;;;5053946;28;20130;-75
2021/10/17 03:36:45;;;;;;;17.35;6.78;;;10.60;81.90;;;;;;5072158;28;20082;-75
2021/10/17 03:39:11;;;;;;;12.85;5.97;;;10.50;82.50;;;;;;5080632;28;20025;-75
2021/10/17 03:41:36;;;;;;;13.50;7.18;;;10.50;81.50;;;;;;5086130;28;20556;-76
2021/10/17 03:44:04;;;;;;;16.60;6.82;;;10.50;81.60;;;;;;5076411;28;20465;-76
2021/10/17 03:46:29;;;;;;;11.98;6.75;;;10.50;81.50;;;;;;5075895;28;20027;-75
2021/10/17 03:48:55;;;;;;;13.25;6.05;;;10.50;81.30;;;;;;5058541;28;20095;-75
2021/10/17 03:51:20;;;;;;;16.27;6.88;;;10.50;81.60;;;;;;5058478;28;20496;-75
2021/10/17 03:53:46;;;;;;;21.20;7.50;;;10.50;81.60;;;;;;5080901;28;20028;-73
2021/10/17 03:56:12;;;;;;;15.00;6.88;;;10.40;81.80;;;;;;5082382;28;20437;-75
2021/10/17 03:58:37;;;;;;;17.40;6.70;;;10.50;82.40;;;;;;5063029;28;20032;-74
2021/10/17 04:01:03;;;;;;;10.88;6.60;;;10.40;82.50;;;;;;5067585;28;20020;-75
2021/10/17 04:03:29;;;;;;;15.68;7.13;;;10.40;82.90;;;;;;5069449;28;20040;-74
2021/10/17 04:05:54;;;;;;;15.88;7.30;;;10.40;82.70;;;;;;5078103;28;20084;-73
2021/10/17 04:08:20;;;;;;;21.35;7.32;;;10.40;82.40;;;;;;5073857;28;20039;-73
2021/10/17 04:10:45;;;;;;;17.25;6.65;;;10.40;82.20;;;;;;5071479;28;20326;-74
2021/10/17 04:13:11;;;;;;;19.38;7.45;;;10.30;82.00;;;;;;5076690;28;20028;-74
2021/10/17 04:15:36;;;;;;;17.80;7.68;;;10.40;82.20;;;;;;5075629;28;20024;-74
2021/10/17 04:18:03;;;;;;;21.05;7.43;;;10.40;82.00;;;;;;5074797;28;20028;-74
2021/10/17 04:20:29;;;;;;;13.07;7.32;;;10.40;82.00;;;;;;5074862;28;20480;-74
2021/10/17 04:22:54;;;;;;;18.27;8.52;;;10.30;82.20;;;;;;5056069;28;20028;-75
2021/10/17 04:25:20;;;;;;;16.75;7.22;;;10.30;82.60;;;;;;5074471;28;20024;-75
2021/10/17 04:27:47;;;;;;;20.48;7.90;;;10.30;82.30;;;;;;5074368;28;20036;-74
2021/10/17 04:30:12;;;;;;;18.88;8.55;;;10.30;81.70;;;;;;5074361;28;20332;-75
2021/10/17 04:32:38;;;;;;;14.75;7.47;;;10.20;81.40;;;;;;5056060;28;20300;-74
2021/10/17 04:35:04;;;;;;;18.50;8.18;;;10.20;81.60;;;;;;5056393;28;20040;-74
2021/10/17 04:37:30;;;;;;;16.63;7.68;;;10.30;81.40;;;;;;5074679;28;20475;-73
2021/10/17 04:39:56;;;;;;;12.80;7.72;;;10.20;81.20;;;;;;5074755;28;20027;-73
2021/10/17 04:42:22;;;;;;;17.25;8.02;;;10.20;81.50;;;;;;5075380;28;20021;-74
2021/10/17 04:44:47;;;;;;;17.67;8.48;;;10.20;81.50;;;;;;5064260;28;20082;-74
2021/10/17 04:47:13;;;;;;;18.88;7.38;;;10.20;81.60;;;;;;5061787;28;20025;-74
2021/10/17 04:49:38;;;;;;;18.60;7.43;;;10.20;82.50;;;;;;5073760;28;20021;-74
2021/10/17 04:52:04;;;;;;;15.20;6.97;;;10.20;82.20;;;;;;5073247;28;20483;-74
2021/10/17 04:54:30;;;;;;;18.33;8.32;;;10.20;81.50;;;;;;5055719;28;20024;-74
2021/10/17 04:56:55;;;;;;;17.45;8.43;;;10.20;81.40;;;;;;5073657;28;20419;-74
2021/10/17 04:59:22;;;;;;;13.95;7.97;;;10.20;80.80;;;;;;5073676;28;20028;-74
2021/10/17 05:01:49;;;;;;;20.00;8.70;;;10.20;80.80;;;;;;5073650;28;20052;-75
2021/10/17 05:04:16;;;;;;;17.15;7.78;;;10.20;81.10;;;;;;5055852;28;20063;-75
2021/10/17 05:06:41;;;;;;;16.02;8.50;;;10.20;81.20;;;;;;5073645;28;20032;-75
2021/10/17 05:09:07;;;;;;;19.00;8.63;;;10.20;81.90;;;;;;5074212;28;20112;-75
2021/10/17 05:11:33;;;;;;;19.60;8.05;;;10.20;81.60;;;;;;5073640;28;20039;-75
2021/10/17 05:13:58;;;;;;;19.08;8.15;;;10.20;81.70;;;;;;5073717;28;20488;-74
2021/10/17 05:16:24;;;;;;;15.57;8.13;;;10.10;82.40;;;;;;5073676;28;20477;-75
2021/10/17 05:18:49;;;;;;;15.65;9.10;;;10.10;82.40;;;;;;5073146;28;20465;-75
2021/10/17 05:21:15;;;;;;;14.25;7.30;;;10.10;82.70;;;;;;5073700;28;20094;-74
2021/10/17 05:23:40;;;;;;;14.70;8.32;;;10.10;82.60;;;;;;5055065;28;20526;-75
2021/10/17 05:26:06;;;;;;;16.58;8.13;;;10.10;83.20;;;;;;5073283;28;20021;-75
2021/10/17 05:28:32;;;;;;;19.38;8.13;;;10.10;83.90;;;;;;5072857;28;20055;-75
2021/10/17 05:31:00;;;;;;;15.35;8.70;;;10.00;84.30;;;;;;5055237;28;20017;-76
2021/10/17 05:33:27;;;;;;;22.05;9.13;;;10.00;83.90;;;;;;5054797;28;20021;-75
2021/10/17 05:35:52;;;;;;;19.27;9.73;;;10.00;83.70;;;;;;5073054;28;20028;-75
2021/10/17 05:38:18;;;;;;;20.48;8.82;;;9.90;83.90;;;;;;5055478;28;20081;-74
2021/10/17 05:40:44;;;;;;;15.75;8.30;;;9.90;83.80;;;;;;5055523;28;20024;-75
2021/10/17 05:43:09;;;;;;;14.82;8.60;;;9.90;84.40;;;;;;5073585;28;20028;-75
2021/10/17 05:45:35;;;;;;;22.80;9.45;;;10.00;85.00;;;;;;5055823;28;20028;-74
2021/10/17 05:48:01;;;;;;;19.35;8.57;;;9.90;85.20;;;;;;5075954;28;20024;-75
2021/10/17 05:50:26;;;;;;;22.77;9.40;;;9.90;85.30;;;;;;5062081;28;20044;-74
2021/10/17 05:52:52;;;;;;;23.95;10.90;;;9.90;85.70;;;;;;5080589;28;20036;-74
2021/10/17 05:55:17;;;;;;;19.02;9.30;;;9.90;86.10;;;;;;5069887;28;20033;-74
2021/10/17 05:57:43;;;;;;;21.60;9.02;;;9.90;85.80;;;;;;5091498;28;20036;-74
2021/10/17 06:00:09;;;;;;;24.55;10.10;;;10.00;86.20;;;;;;5079155;28;20020;-74
2021/10/17 06:02:35;;;;;;;22.80;9.90;;;9.90;86.30;;;;;;5054763;28;20115;-75
2021/10/17 06:05:01;;;;;;;19.27;9.40;;;9.90;86.60;;;;;;5071912;28;20068;-75
2021/10/17 06:07:26;;;;;;;18.23;9.13;;;9.90;86.30;;;;;;5072223;28;20029;-75
2021/10/17 06:09:52;;;;;;;18.40;9.20;;;9.90;86.30;;;;;;5054697;28;20381;-75
2021/10/17 06:12:18;;;;;;;20.33;9.82;;;9.90;85.70;;;;;;5054645;28;20376;-75
2021/10/17 06:14:43;;;;;;;18.38;8.52;;;9.80;85.20;;;;;;5054510;28;20031;-75
2021/10/17 06:17:09;;;;;;;15.80;8.10;;;9.90;84.90;;;;;;5055466;28;20365;-75
2021/10/17 06:19:34;;;;;;;16.00;8.52;;;9.90;84.70;;;;;;5072339;28;20027;-74
2021/10/17 06:22:03;;;;;;;19.10;8.07;;;9.90;84.30;;;;;;5054596;28;20179;-74
2021/10/17 06:24:30;;;;;;;21.08;9.18;;;9.90;84.10;;;;;;5072423;28;20078;-76
2021/10/17 06:26:56;;;;;;;14.85;8.13;;;9.90;83.90;;;;;;5054620;28;20466;-74
2021/10/17 06:29:22;;;;;;;22.23;9.82;;;9.90;83.80;;;;;;5072113;28;20396;-75
2021/10/17 06:31:47;;;;;;;20.38;9.52;;;9.90;84.00;;;;;;5072417;28;20033;-74
2021/10/17 06:34:13;;;;;;;18.15;8.82;;;9.90;83.70;;;;;;5054338;28;20508;-75
2021/10/17 06:36:38;;;;;;;17.55;9.32;;;9.90;83.70;;;;;;5072034;28;20028;-75
2021/10/17 06:39:04;;;;;;;19.02;8.93;;;9.90;83.90;;;;;;5054339;28;20464;-75
2021/10/17 06:41:30;;;;;;;18.95;9.18;;;9.90;84.00;;;;;;5071854;28;20412;-74
2021/10/17 06:43:55;;;;;;;22.55;8.57;;;9.90;83.60;;;;;;5054218;28;20097;-74
2021/10/17 06:46:21;;;;;;;17.45;9.65;;;9.90;83.20;;;;;;5054275;28;20193;-75
2021/10/17 06:48:46;;;;;;;18.33;8.80;;;10.00;83.80;;;;;;5071217;28;20036;-75
2021/10/17 06:51:12;;;;;;;15.07;8.13;;;10.00;83.10;;;;;;5052577;28;20027;-76
2021/10/17 06:53:37;;;;;;;16.27;9.00;;;10.00;83.10;;;;;;5070449;28;20031;-75
2021/10/17 06:56:03;;;;;;;17.88;8.15;;;10.00;82.50;;;;;;5070904;28;20056;-75
2021/10/17 06:58:30;;;;;;;19.85;8.60;;;10.00;82.40;;;;;;5070442;28;20547;-74
2021/10/17 07:00:56;;;;;;;15.93;8.95;;;10.00;82.20;;;;;;5071648;28;20025;-74
2021/10/17 07:03:21;;;;;;;24.27;9.57;;;10.00;82.70;;;;;;5087429;28;20036;-76
2021/10/17 07:05:47;;;;;;;23.17;9.57;;;10.10;83.50;;;;;;5071558;28;20040;-75
2021/10/17 07:08:12;;;;;;;17.73;9.20;;;10.20;83.40;;;;;;5087404;28;20028;-75
2021/10/17 07:10:38;;;;;;;20.55;9.85;;;10.10;82.60;;;;;;5071815;28;20058;-75
2021/10/17 07:13:03;;;;;;;19.02;10.25;;;10.20;82.60;;;;;;5071679;28;20488;-74
2021/10/17 07:15:29;;;;;;;22.83;9.25;;;10.20;81.90;;;;;;5055106;28;20021;-74
2021/10/17 07:17:54;;;;;;;25.52;9.18;;;10.30;81.40;;;;;;5075637;28;20032;-75
2021/10/17 07:20:20;;;;;;;17.33;8.93;;;10.30;80.80;;;;;;5075669;28;20020;-75
2021/10/17 07:22:46;;;;;;;18.52;8.95;;;10.30;81.30;;;;;;5075364;28;20028;-74
2021/10/17 07:25:11;;;;;;;23.67;9.55;;;10.40;80.80;;;;;;5076344;28;20108;-74
2021/10/17 07:27:37;;;;;;;17.40;9.40;;;10.50;80.90;;;;;;5080080;28;20040;-74
2021/10/17 07:30:05;;;;;;;20.48;9.07;;;10.50;81.20;;;;;;5095379;28;20024;-73
2021/10/17 07:32:30;;;;;;;20.15;10.23;;;10.60;81.10;;;;;;5075760;28;20028;-74
2021/10/17 07:34:56;;;;;;;16.60;9.95;;;10.60;81.40;;;;;;5057685;28;20039;-75
2021/10/17 07:37:22;;;;;;;24.52;10.13;;;10.70;81.60;;;;;;5091667;28;20068;-73
2021/10/17 07:39:47;;;;;;;18.23;9.27;;;10.80;81.60;;;;;;5057990;28;20403;-73
2021/10/17 07:42:13;;;;;;;15.25;8.52;;;10.90;80.10;;;;;;5078225;28;20056;-74
2021/10/17 07:44:39;;;;;;;17.20;8.75;;;11.00;79.90;;;;;;5081079;28;20040;-73
2021/10/17 07:47:05;;;;;;;15.82;8.85;;;11.10;79.50;;;;;;5099544;28;20317;-74
2021/10/17 07:49:31;;;;;;;17.17;8.98;;;11.10;78.70;;;;;;5098553;28;20062;-75
2021/10/17 07:51:56;;;;;;;20.02;9.25;;;11.20;78.20;;;;;;5075407;28;20024;-76
2021/10/17 07:54:22;;;;;;;19.15;8.30;;;11.20;77.50;;;;;;5075263;28;20025;-74
2021/10/17 07:56:48;;;;;;;16.48;9.20;;;11.30;78.10;;;;;;5057326;28;20244;-74
2021/10/17 07:59:13;;;;;;;18.67;9.45;;;11.30;77.70;;;;;;5057107;28;20017;-75
2021/10/17 08:01:39;;;;;;;22.67;8.98;;;11.30;77.10;;;;;;5090444;28;20028;-75
2021/10/17 08:04:05;;;;;;;20.27;8.15;;;11.40;76.50;;;;;;5074567;28;20028;-74
2021/10/17 08:06:30;;;;;;;16.02;8.65;;;11.40;76.40;;;;;;5074714;28;20065;-74
2021/10/17 08:08:56;;;;;;;16.05;8.55;;;11.50;76.00;;;;;;5075233;28;20028;-75
2021/10/17 08:11:21;;;;;;;22.20;8.73;;;11.50;75.40;;;;;;5075230;28;20488;-75
2021/10/17 08:13:47;;;;;;;18.15;9.57;;;11.50;75.60;;;;;;5074617;28;20046;-74
2021/10/17 08:16:13;;;;;;;13.65;8.15;;;11.50;75.90;;;;;;5075474;28;20044;-75
2021/10/17 08:18:38;;;;;;;17.05;9.60;;;11.50;76.20;;;;;;5059588;28;20373;-75
2021/10/17 08:21:05;;;;;;;17.80;8.40;;;11.60;76.00;;;;;;5075345;28;20028;-75
2021/10/17 08:23:30;;;;;;;16.42;8.55;;;11.60;75.70;;;;;;5074355;28;20033;-75
2021/10/17 08:25:56;;;;;;;13.30;7.82;;;11.50;74.00;;;;;;5090512;28;20027;-75
2021/10/17 08:28:22;;;;;;;16.25;8.13;;;11.50;75.10;;;;;;5089280;28;20275;-75
2021/10/17 08:30:50;;;;;;;20.80;9.18;;;11.60;75.40;;;;;;5074583;28;20116;-75
2021/10/17 08:33:19;;;;;;;18.25;9.00;;;11.60;75.50;;;;;;5056546;28;20029;-75
2021/10/17 08:35:45;;;;;;;17.83;9.23;;;11.60;74.60;;;;;;5089656;28;20021;-74
2021/10/17 08:38:11;;;;;;;15.52;9.05;;;11.60;75.50;;;;;;5090010;28;20157;-75
2021/10/17 08:40:39;;;;;;;19.92;8.45;;;11.60;75.00;;;;;;5074112;28;20067;-74
2021/10/17 08:43:05;;;;;;;23.15;9.18;;;11.60;74.20;;;;;;5089361;28;20017;-75
2021/10/17 08:45:30;;;;;;;16.50;7.97;;;11.60;74.50;;;;;;5073607;28;20027;-74
2021/10/17 08:47:58;;;;;;;15.65;8.13;;;11.60;74.30;;;;;;5073687;28;20029;-74
2021/10/17 08:50:24;;;;;;;19.40;10.15;;;11.60;74.40;;;;;;5055824;28;20159;-75
2021/10/17 08:52:49;;;;;;;20.10;9.65;;;11.60;75.00;;;;;;5073462;28;20100;-75
2021/10/17 08:55:15;;;;;;;16.52;7.85;;;11.70;74.30;;;;;;5073543;28;20112;-74
2021/10/17 08:57:41;;;;;;;16.15;9.07;;;11.70;74.60;;;;;;5073573;28;20021;-74
2021/10/17 09:00:25;;;;;;;16.65;9.63;;;11.80;74.60;;;;;;5073561;28;20028;-74
2021/10/17 09:02:51;;;;;;;22.13;9.93;;;11.80;75.10;;;;;;5073028;28;20119;-75
2021/10/17 09:05:18;;;;;;;20.83;9.07;;;11.90;74.60;;;;;;5055647;28;20105;-76
2021/10/17 09:07:51;;;;;;;17.73;8.93;;;12.00;74.90;;;;;;5055455;28;20162;-75
2021/10/17 09:10:18;;;;;;;20.10;9.48;;;12.00;75.10;;;;;;5073823;28;20028;-74
2021/10/17 09:12:46;;;;;;;20.58;7.97;;;12.10;74.40;;;;;;5073419;28;20112;-76
2021/10/17 09:15:26;;;;;;;17.27;8.98;;;12.10;74.00;;;;;;5055538;28;20100;-75
2021/10/17 09:18:14;;;;;;;16.23;8.60;;;12.20;73.70;;;;;;5073213;28;20488;-75
2021/10/17 09:20:46;;;;;;;17.92;8.63;;;12.20;73.50;;;;;;5055023;28;20028;-73
2021/10/17 09:23:12;;;;;;;18.58;8.63;;;12.30;73.60;;;;;;5073613;28;20020;-75
2021/10/17 09:25:38;;;;;;;13.18;7.80;;;12.30;73.40;;;;;;5055286;28;20465;-75
2021/10/17 09:28:22;;;;;;;16.67;9.00;;;12.40;73.50;;;;;;5073518;28;20028;-75
2021/10/17 09:31:02;;;;;;;19.83;9.45;;;12.50;72.20;;;;;;5073287;28;20036;-76
2021/10/17 09:33:29;;;;;;;17.73;7.13;;;12.60;72.00;;;;;;5055254;28;20094;-73
2021/10/17 09:35:55;;;;;;;19.90;9.60;;;12.60;72.50;;;;;;5061039;28;20034;-74
2021/10/17 09:38:33;;;;;;;19.85;9.60;;;12.70;72.00;;;;;;5092618;28;20388;-75
2021/10/17 09:41:17;;;;;;;20.85;8.13;;;12.70;72.00;;;;;;5074952;28;20021;-75
2021/10/17 09:43:53;;;;;;;19.17;9.27;;;12.80;71.50;;;;;;5073218;28;20108;-75
2021/10/17 09:46:19;;;;;;;17.35;8.32;;;12.70;71.00;;;;;;5073332;28;20029;-75
2021/10/17 09:48:45;;;;;;;17.83;8.52;;;12.80;72.60;;;;;;5072718;28;20021;-76
2021/10/17 09:51:51;;;;;;;17.10;8.45;;;12.80;72.40;;;;;;5054832;28;20062;-75
2021/10/17 09:54:20;;;;;;;17.15;7.65;;;12.90;71.50;;;;;;5050941;28;20118;-75
2021/10/17 09:56:45;;;;;;;17.83;7.47;;;13.00;71.30;;;;;;5072873;28;20030;-75
2021/10/17 09:59:13;;;;;;;15.82;8.32;;;13.10;71.00;;;;;;5088611;28;20017;-74
2021/10/17 10:01:40;;;;;;;18.33;6.97;;;13.10;70.20;;;;;;5054489;28;20031;-74
2021/10/17 10:04:09;;;;;;;13.75;7.03;;;13.20;69.10;;;;;;5055425;28;20036;-74
2021/10/17 10:06:35;;;;;;;21.95;9.35;;;13.20;69.30;;;;;;5079284;28;20028;-74
2021/10/17 10:09:07;;;;;;;16.23;7.80;;;13.20;70.00;;;;;;5073912;28;20055;-75
2021/10/17 10:11:34;;;;;;;17.52;7.15;;;13.30;69.60;;;;;;5072805;28;20028;-74
2021/10/17 10:14:18;;;;;;;17.27;7.22;;;13.40;70.00;;;;;;5054139;28;20115;-73
2021/10/17 10:16:44;;;;;;;14.43;6.35;;;13.50;67.20;;;;;;5088084;28;20115;-74
2021/10/17 10:19:14;;;;;;;15.93;6.78;;;13.40;68.60;;;;;;5073176;28;20059;-74
2021/10/17 10:21:39;;;;;;;16.08;8.02;;;13.40;67.50;;;;;;5053845;28;20024;-76
2021/10/17 10:24:11;;;;;;;16.30;8.02;;;13.40;69.20;;;;;;5072167;28;20040;-74
2021/10/17 10:26:39;;;;;;;14.65;7.22;;;13.50;68.00;;;;;;5071733;28;20043;-74
2021/10/17 10:29:04;;;;;;;13.60;7.30;;;13.50;67.70;;;;;;5053628;28;20021;-75
2021/10/17 10:31:50;;;;;;;21.73;7.53;;;13.50;68.30;;;;;;5071663;28;20025;-75
2021/10/17 10:34:22;;;;;;;16.55;8.25;;;13.50;69.50;;;;;;5071826;28;20514;-75
2021/10/17 10:36:49;;;;;;;15.98;6.88;;;13.50;69.30;;;;;;5054165;28;20037;-74
2021/10/17 10:39:16;;;;;;;16.17;8.73;;;13.60;68.70;;;;;;5071647;28;20031;-74
2021/10/17 10:41:58;;;;;;;17.20;9.48;;;13.60;68.10;;;;;;5053869;28;20029;-75
2021/10/17 10:44:34;;;;;;;16.35;8.18;;;13.70;67.80;;;;;;5054021;28;20021;-75
2021/10/17 10:47:23;;;;;;;21.17;7.00;;;13.80;67.50;;;;;;5071689;28;20129;-75
2021/10/17 10:49:50;;;;;;;16.92;7.97;;;13.80;68.10;;;;;;5071815;28;20036;-75
2021/10/17 10:52:24;;;;;;;18.65;8.27;;;13.90;68.40;;;;;;5075481;28;20029;-75
2021/10/17 10:54:51;;;;;;;18.23;8.43;;;13.90;67.00;;;;;;5075295;28;20020;-75
2021/10/17 10:57:21;;;;;;;13.05;7.20;;;14.00;67.70;;;;;;5075939;28;20056;-74
2021/10/17 10:59:59;;;;;;;14.65;8.27;;;14.00;70.20;;;;;;5057696;28;20027;-74
2021/10/17 11:02:26;;;;;;;19.70;8.45;;;14.10;68.00;;;;;;5075469;28;20037;-75
2021/10/17 11:04:51;;;;;;;16.20;8.45;;;14.20;69.50;;;;;;5057717;28;20078;-75
2021/10/17 11:07:22;;;;;;;17.25;7.88;;;14.30;67.80;;;;;;5057951;28;20028;-74
2021/10/17 11:09:49;;;;;;;16.38;7.35;;;14.50;68.20;;;;;;5057767;28;20017;-74
2021/10/17 11:12:40;;;;;;;20.58;8.07;;;14.60;66.70;;;;;;5075895;28;20047;-73
2021/10/17 11:15:07;;;;;;;14.68;7.35;;;14.70;66.40;;;;;;5057649;28;20067;-74
2021/10/17 11:17:33;;;;;;;15.15;7.25;;;14.80;66.20;;;;;;5057482;28;20033;-74
2021/10/17 11:19:58;;;;;;;15.73;7.38;;;14.90;64.60;;;;;;5091482;28;20021;-74
2021/10/17 11:22:24;;;;;;;28.00;9.18;;;15.10;63.60;;;;;;5059968;28;20044;-75
2021/10/17 11:24:55;;;;;;;17.77;7.93;;;15.50;65.60;;;;;;5087304;28;20029;-74
2021/10/17 11:27:21;;;;;;;14.95;6.68;;;15.80;63.90;;;;;;5086475;28;20024;-75
2021/10/17 11:29:57;;;;;;;13.00;6.13;;;16.00;63.90;;;;;;5061701;28;20433;-75
2021/10/17 11:32:23;;;;;;;15.13;6.55;;;;;;;;;;5076149;28;20029;-74
2021/10/17 11:34:58;;;;;;;14.55;6.47;;;16.60;61.20;;;;;;5057932;28;20032;-76
2021/10/17 11:37:26;;;;;;;17.25;6.63;;;16.70;60.20;;;;;;5058345;28;20060;-75
2021/10/17 11:40:12;;;;;;;13.60;6.00;;;;;;;;;;5076198;28;20453;-75
2021/10/17 11:42:45;;;;;;;12.65;6.15;;;17.20;59.00;;;;;;5074600;28;20495;-75
2021/10/17 11:45:26;;;;;;;10.38;5.45;;;17.50;56.70;;;;;;5057648;28;20028;-75
2021/10/17 11:47:53;;;;;;;11.07;4.57;;;17.80;56.70;;;;;;5057452;28;20017;-76
2021/10/17 11:50:20;;;;;;;11.35;5.47;;;18.00;61.20;;;;;;5075912;28;20021;-75
2021/10/17 11:52:57;;;;;;;11.50;5.13;;;18.20;57.60;;;;;;5075268;28;20450;-75
2021/10/17 11:55:40;;;;;;;8.93;4.78;;;18.30;61.50;;;;;;5074746;28;20484;-74
2021/10/17 11:58:27;;;;;;;12.00;5.70;;;18.40;61.80;;;;;;5075026;28;20056;-75
2021/10/17 12:01:14;;;;;;;11.00;5.45;;;18.40;57.80;;;;;;5074884;28;20020;-76
2021/10/17 12:03:42;;;;;;;9.15;5.05;;;18.30;54.70;;;;;;5054745;28;20041;-74
2021/10/17 12:06:15;;;;;;;13.30;4.75;;;18.10;53.30;;;;;;5057185;28;20405;-75
2021/10/17 12:08:47;;;;;;;11.77;4.55;;;18.20;55.70;;;;;;5057068;28;20093;-74
2021/10/17 12:11:15;;;;;;;8.75;4.60;;;18.30;56.50;;;;;;5056642;28;20115;-75
2021/10/17 12:13:46;;;;;;;9.70;4.47;;;18.40;56.40;;;;;;5055938;28;20032;-75
2021/10/17 12:16:17;;;;;;;8.85;4.20;;;18.30;60.90;;;;;;5075412;28;20073;-76
2021/10/17 12:18:45;;;;;;;8.10;3.95;;;18.00;58.30;;;;;;5057470;28;20020;-74
2021/10/17 12:21:13;;;;;;;10.57;5.30;;;17.80;59.30;;;;;;5075549;28;20024;-75
2021/10/17 12:23:39;;;;;;;9.70;4.10;;;17.60;57.20;;;;;;5056579;28;20035;-74
2021/10/17 12:26:06;;;;;;;11.35;5.13;;;17.30;64.00;;;;;;5056568;28;20027;-75
2021/10/17 12:28:32;;;;;;;9.02;4.47;;;17.20;58.90;;;;;;5074201;28;20130;-75
2021/10/17 12:30:59;;;;;;;17.08;5.15;;;17.00;61.90;;;;;;5056376;28;20070;-76
2021/10/17 12:33:25;;;;;;;10.23;5.68;;;16.90;60.10;;;;;;5074667;28;20031;-74
2021/10/17 12:35:51;;;;;;;11.77;5.65;;;16.80;57.10;;;;;;5056424;28;20033;-75
2021/10/17 12:38:17;;;;;;;9.73;5.20;;;16.70;61.50;;;;;;5074406;28;20028;-75